Time;durP1;ratioP1;P1;durP2;ratioP2;P2;SDS_P1;SDS_P2;PMS_P1;PMS_P2;Temp;Humidity;BMP_temperature;BMP_pressure;BME280_temperature;BME280_humidity;BME280_pressure;Samples;Min_cycle;Max_cycle;Signal;HPM_P1;HPM_P2
2022/09/14 00:01:44;;;;;;;4.97;1.25;;;;;;;20.01;55.37;92207.59;2053790;69;20134;-80
2022/09/14 00:04:13;;;;;;;5.03;1.52;;;;;;;20.00;56.91;92203.31;2054034;70;20644;-78
2022/09/14 00:06:40;;;;;;;6.13;1.40;;;;;;;19.71;56.56;92202.06;2053878;70;20190;-79
2022/09/14 00:09:07;;;;;;;4.55;1.67;;;;;;;19.87;56.17;92201.63;2044911;70;20609;-79
2022/09/14 00:11:34;;;;;;;8.68;1.55;;;;;;;19.80;56.96;92192.25;2050147;70;20176;-80
2022/09/14 00:14:01;;;;;;;4.07;1.27;;;;;;;19.82;57.35;92187.97;2053864;70;20154;-80
2022/09/14 00:16:30;;;;;;;4.43;1.42;;;;;;;19.79;57.59;92187.19;2053995;70;20207;-81
2022/09/14 00:19:05;;;;;;;6.82;1.80;;;;;;;19.86;57.39;92188.03;2050114;70;20310;-79
2022/09/14 00:21:36;;;;;;;4.50;1.40;;;;;;;19.77;58.33;92184.31;2053569;70;20301;-82
2022/09/14 00:24:03;;;;;;;9.60;1.70;;;;;;;20.01;55.32;92179.03;2054187;70;20187;-82
2022/09/14 00:26:29;;;;;;;2.72;1.25;;;;;;;19.85;56.85;92184.47;2053766;70;20625;-81
2022/09/14 00:28:56;;;;;;;4.63;1.50;;;;;;;19.87;56.38;92187.34;2049634;70;20150;-78
2022/09/14 00:31:24;;;;;;;2.33;1.40;;;;;;;19.78;57.19;92191.47;2054894;70;20161;-78
2022/09/14 00:33:51;;;;;;;5.65;1.20;;;;;;;19.97;55.13;92189.66;2055601;70;20205;-77
2022/09/14 00:36:21;;;;;;;3.42;1.00;;;;;;;19.86;53.98;92194.47;2047562;70;20169;-79
2022/09/14 00:38:47;;;;;;;6.60;1.10;;;;;;;19.70;55.16;92194.16;2049919;70;20201;-80
2022/09/14 00:41:16;;;;;;;5.07;1.50;;;;;;;19.52;56.90;92175.28;2050992;70;20153;-79
2022/09/14 00:44:00;;;;;;;6.55;1.40;;;;;;;19.64;57.68;92174.06;2050538;70;20502;-81
2022/09/14 00:46:29;;;;;;;4.93;1.42;;;;;;;19.67;57.21;92162.00;2047929;70;20166;-81
2022/09/14 00:48:58;;;;;;;4.60;1.20;;;;;;;19.70;57.59;92157.78;2048043;70;20158;-81
2022/09/14 00:51:26;;;;;;;6.22;1.33;;;;;;;19.71;57.61;92147.09;2054766;70;20142;-80
2022/09/14 00:53:52;;;;;;;5.00;1.45;;;;;;;19.09;60.93;92155.84;2052919;70;20946;-81
2022/09/14 00:56:18;;;;;;;5.95;1.40;;;;;;;19.40;57.23;92154.31;2050179;70;20158;-80
2022/09/14 00:58:46;;;;;;;4.32;1.33;;;;;;;19.54;56.83;92154.59;2051009;70;20169;-80
2022/09/14 01:01:12;;;;;;;3.33;1.50;;;;;;;19.55;56.64;92151.03;2054043;70;20181;-78
2022/09/14 01:03:38;;;;;;;4.05;1.50;;;;;;;19.55;57.15;92156.75;2049395;70;20280;-79
2022/09/14 01:06:17;;;;;;;6.93;1.55;;;;;;;19.14;59.20;92160.94;2048582;70;20281;-79
2022/09/14 01:09:00;;;;;;;6.03;1.38;;;;;;;19.36;58.51;92152.09;2052918;70;20621;-78
2022/09/14 01:11:49;;;;;;;4.20;1.52;;;;;;;19.43;58.64;92147.97;2054272;70;20142;-79
2022/09/14 01:14:18;;;;;;;3.88;1.30;;;;;;;19.35;59.28;92153.53;2050542;70;20150;-80
2022/09/14 01:17:00;;;;;;;3.70;1.38;;;;;;;19.69;55.23;92147.75;2050460;70;20550;-80
2022/09/14 01:20:06;;;;;;;4.57;1.25;;;;;;;19.32;58.73;92148.44;2048158;70;20153;-80
2022/09/14 01:22:35;;;;;;;4.70;1.25;;;;;;;19.17;59.64;92138.91;2050705;70;20628;-80
2022/09/14 01:25:22;;;;;;;5.78;1.55;;;;;;;19.30;58.86;92132.03;2051759;70;20184;-78
2022/09/14 01:27:50;;;;;;;5.90;1.30;;;;;;;19.35;58.33;92127.84;2049691;70;20780;-80
2022/09/14 01:30:21;;;;;;;5.22;1.50;;;;;;;19.29;58.56;92116.31;2049796;70;20632;-78
2022/09/14 01:33:13;;;;;;;7.40;1.40;;;;;;;19.41;56.56;92112.97;2049722;70;20181;-79
2022/09/14 01:35:49;;;;;;;4.20;1.40;;;;;;;18.99;59.89;92117.16;2051121;70;20201;-79
2022/09/14 01:38:26;;;;;;;5.43;1.42;;;;;;;19.18;59.21;92137.47;2051838;70;20242;-80
2022/09/14 01:40:53;;;;;;;3.00;1.15;;;;;;;19.09;59.69;92128.03;2050366;70;20289;-79
2022/09/14 01:43:27;;;;;;;6.22;1.30;;;;;;;19.21;58.75;92136.84;2051077;70;20261;-78
2022/09/14 01:46:03;;;;;;;7.20;1.40;;;;;;;19.14;57.65;92145.97;2047672;70;20159;-80
2022/09/14 01:48:45;;;;;;;6.75;1.55;;;;;;;19.20;58.50;92134.69;2051579;70;20158;-80
2022/09/14 01:51:16;;;;;;;8.48;1.60;;;;;;;19.20;59.04;92128.97;2052031;70;20335;-80
2022/09/14 01:53:48;;;;;;;7.15;1.63;;;;;;;19.17;58.81;92116.78;2053204;70;20241;-79
2022/09/14 01:56:48;;;;;;;4.80;1.58;;;;;;;19.16;58.59;92101.09;2054150;70;20222;-79
2022/09/14 01:59:19;;;;;;;7.60;1.65;;;;;;;19.16;59.01;92091.81;2050447;70;20221;-80
2022/09/14 02:02:08;;;;;;;8.23;1.60;;;;;;;19.19;59.09;92099.69;2049005;70;20142;-81
2022/09/14 02:05:02;;;;;;;5.82;1.50;;;;;;;19.11;60.11;92110.97;2051769;70;20158;-81
2022/09/14 02:07:28;;;;;;;5.57;1.50;;;;;;;19.09;60.33;92110.91;2051781;70;20150;-82
2022/09/14 02:09:55;;;;;;;5.05;1.70;;;;;;;18.48;62.89;92118.88;2044933;70;20240;-81
2022/09/14 02:12:21;;;;;;;5.32;1.80;;;;;;;18.86;60.24;92109.03;2044433;70;20185;-81
2022/09/14 02:14:50;;;;;;;3.72;1.85;;;;;;;18.89;60.39;92114.09;2054007;70;20157;-81
2022/09/14 02:17:16;;;;;;;5.43;1.67;;;;;;;18.99;59.42;92110.72;2053839;70;20141;-79
2022/09/14 02:20:03;;;;;;;7.18;1.58;;;;;;;18.95;60.03;92122.03;2054337;70;20517;-79
2022/09/14 02:22:30;;;;;;;2.90;1.60;;;;;;;19.08;59.19;92117.31;2054315;70;20166;-80
2022/09/14 02:24:56;;;;;;;5.53;1.65;;;;;;;19.11;58.79;92110.25;2053602;70;20542;-79
2022/09/14 02:27:23;;;;;;;3.17;1.42;;;;;;;19.01;60.03;92099.34;2053918;70;20138;-76
2022/09/14 02:29:50;;;;;;;5.18;1.77;;;;;;;18.81;60.39;92101.78;2051158;70;20261;-81
2022/09/14 02:32:38;;;;;;;6.45;1.63;;;;;;;18.87;60.33;92096.94;2054431;70;20152;-80
2022/09/14 02:35:23;;;;;;;3.67;1.75;;;;;;;18.97;59.98;92085.03;2054526;70;20657;-81
2022/09/14 02:38:10;;;;;;;6.38;1.45;;;;;;;19.02;59.39;92078.72;2054692;70;20220;-79
2022/09/14 02:40:52;;;;;;;5.38;1.60;;;;;;;18.96;59.65;92077.84;2050988;70;20160;-79
2022/09/14 02:43:33;;;;;;;9.48;1.75;;;;;;;18.99;58.18;92077.22;2054304;70;20138;-80
2022/09/14 02:45:59;;;;;;;5.72;1.30;;;;;;;19.02;58.07;92084.41;2048576;70;20253;-80
2022/09/14 02:48:34;;;;;;;5.15;1.73;;;;;;;19.02;58.34;92080.84;2050331;70;20662;-80
2022/09/14 02:51:04;;;;;;;4.68;1.25;;;;;;;18.99;58.33;92079.34;2050762;70;20213;-80
2022/09/14 02:53:49;;;;;;;7.25;1.55;;;;;;;18.67;57.69;92085.09;2051464;70;20294;-82
2022/09/14 02:56:16;;;;;;;3.30;1.40;;;;;;;18.83;59.34;92090.41;2051605;70;20142;-78
2022/09/14 02:58:44;;;;;;;5.07;1.35;;;;;;;18.89;59.48;92085.56;2051432;70;20586;-81
2022/09/14 03:01:12;;;;;;;6.03;1.67;;;;;;;18.84;59.16;92089.75;2051147;70;20130;-81
2022/09/14 03:03:38;;;;;;;6.35;1.58;;;;;;;18.79;59.95;92088.94;2051274;70;20158;-81
2022/09/14 03:06:04;;;;;;;5.30;1.30;;;;;;;18.92;57.54;92087.06;2051259;70;20127;-82
2022/09/14 03:08:31;;;;;;;4.72;1.35;;;;;;;18.89;58.68;92096.25;2051213;70;20146;-79
2022/09/14 03:10:57;;;;;;;3.72;1.40;;;;;;;18.77;58.72;92091.03;2051088;70;20182;-81
2022/09/14 03:13:24;;;;;;;3.85;1.30;;;;;;;18.48;62.17;92093.25;2051177;70;20225;-82
2022/09/14 03:15:50;;;;;;;6.03;1.40;;;;;;;18.14;62.96;92093.19;2051356;70;20234;-79
2022/09/14 03:18:16;;;;;;;5.70;1.40;;;;;;;18.48;61.06;92092.53;2051257;70;20229;-79
2022/09/14 03:20:42;;;;;;;6.53;1.60;;;;;;;18.61;60.69;92096.38;2051218;70;20150;-81
2022/09/14 03:23:09;;;;;;;3.38;1.40;;;;;;;18.67;61.03;92096.50;2051365;70;20158;-80
2022/09/14 03:25:38;;;;;;;5.80;1.40;;;;;;;18.67;61.29;92100.06;2051195;70;20265;-81
2022/09/14 03:28:05;;;;;;;4.72;1.40;;;;;;;18.66;61.78;92103.59;2051481;70;20138;-81
2022/09/14 03:30:31;;;;;;;4.65;1.55;;;;;;;18.71;60.10;92100.19;2051568;70;20237;-82
2022/09/14 03:32:58;;;;;;;6.80;1.42;;;;;;;18.74;59.90;92103.81;2051262;70;20221;-80
2022/09/14 03:35:26;;;;;;;3.45;1.25;;;;;;;18.83;58.42;92102.56;2051474;70;20214;-81
2022/09/14 03:37:52;;;;;;;5.53;1.20;;;;;;;18.90;57.28;92097.69;2048262;70;20146;-81
2022/09/14 03:40:18;;;;;;;4.05;1.33;;;;;;;18.81;57.19;92099.66;2051339;70;20165;-82
2022/09/14 03:42:46;;;;;;;6.07;1.20;;;;;;;18.89;57.05;92107.66;2048259;70;20218;-80
2022/09/14 03:45:13;;;;;;;3.72;1.27;;;;;;;18.91;57.71;92102.72;2051522;70;20222;-80
2022/09/14 03:47:40;;;;;;;5.10;1.30;;;;;;;19.03;55.61;92108.69;2051380;70;20245;-79
2022/09/14 03:50:07;;;;;;;4.05;1.20;;;;;;;18.99;55.63;92107.88;2047927;70;20348;-81
2022/09/14 03:52:34;;;;;;;3.83;1.23;;;;;;;18.92;55.30;92097.72;2051248;70;20142;-80
2022/09/14 03:55:00;;;;;;;3.78;1.30;;;;;;;18.80;55.10;92098.22;2051238;70;20533;-81
2022/09/14 03:57:26;;;;;;;11.93;1.40;;;;;;;18.96;56.22;92100.66;2051115;70;20146;-82
2022/09/14 03:59:52;;;;;;;4.57;1.17;;;;;;;18.88;55.79;92104.09;2051019;70;20199;-78
2022/09/14 04:02:17;;;;;;;5.32;1.33;;;;;;;18.89;55.02;92096.25;2051082;70;20151;-79
2022/09/14 04:04:43;;;;;;;3.70;1.30;;;;;;;19.04;55.08;92095.13;2047658;70;20134;-77
2022/09/14 04:07:09;;;;;;;4.82;1.27;;;;;;;19.11;54.17;92098.84;2050662;70;20182;-77
2022/09/14 04:09:34;;;;;;;4.75;1.50;;;;;;;18.94;56.69;92103.50;2051065;70;20186;-82
2022/09/14 04:12:00;;;;;;;3.75;1.52;;;;;;;19.01;54.88;92107.91;2047473;70;20146;-80
2022/09/14 04:14:26;;;;;;;1.85;1.10;;;;;;;18.98;55.58;92098.59;2047716;70;20189;-79
2022/09/14 04:16:51;;;;;;;8.13;1.23;;;;;;;19.04;54.58;92104.41;2051202;70;20138;-78
2022/09/14 04:19:17;;;;;;;4.20;1.40;;;;;;;18.84;54.09;92106.13;2051139;70;20154;-80
2022/09/14 04:21:43;;;;;;;6.68;1.60;;;;;;;19.14;53.07;92103.88;2051246;70;20182;-81
2022/09/14 04:24:11;;;;;;;4.32;1.58;;;;;;;19.15;56.21;92107.47;2051063;70;20154;-81
2022/09/14 04:26:37;;;;;;;4.80;1.40;;;;;;;19.13;54.15;92099.59;2050665;70;20170;-79
2022/09/14 04:29:04;;;;;;;3.80;1.25;;;;;;;18.96;54.48;92092.84;2047510;70;20647;-82
2022/09/14 04:31:31;;;;;;;5.95;1.90;;;;;;;18.93;54.32;92090.66;2050731;70;20161;-82
2022/09/14 04:33:56;;;;;;;4.30;1.60;;;;;;;19.09;54.31;92093.09;2050680;70;20164;-78
2022/09/14 04:36:28;;;;;;;2.95;1.33;;;;;;;19.13;54.76;92081.75;2050797;70;20135;-77
2022/09/14 04:38:56;;;;;;;4.20;1.23;;;;;;;19.18;54.84;92080.44;2047966;70;20166;-78
2022/09/14 04:41:22;;;;;;;5.80;1.70;;;;;;;19.16;53.90;92086.81;2050700;70;20146;-76
2022/09/14 04:43:50;;;;;;;6.78;1.70;;;;;;;19.16;54.92;92086.81;2050676;70;20136;-78
2022/09/14 04:46:18;;;;;;;5.80;1.45;;;;;;;19.19;54.75;92087.56;2050953;70;20166;-79
2022/09/14 04:48:44;;;;;;;7.90;1.60;;;;;;;19.22;54.14;92083.34;2050742;70;20169;-79
2022/09/14 04:51:17;;;;;;;4.93;1.85;;;;;;;19.22;54.58;92077.66;2050663;70;20620;-80
2022/09/14 04:53:45;;;;;;;4.32;1.58;;;;;;;19.14;55.17;92088.91;2050611;70;20150;-79
2022/09/14 04:56:12;;;;;;;3.08;1.38;;;;;;;19.04;54.67;92089.44;2050718;70;20226;-79
2022/09/14 04:58:41;;;;;;;8.68;1.80;;;;;;;19.02;53.74;92089.41;2050850;70;20547;-80
2022/09/14 05:01:13;;;;;;;3.53;1.58;;;;;;;19.08;53.23;92085.94;2050788;70;20185;-82
2022/09/14 05:03:40;;;;;;;13.55;1.80;;;;;;;19.16;53.20;92100.38;2050964;70;20193;-79
2022/09/14 05:06:27;;;;;;;2.92;1.23;;;;;;;19.08;53.44;92105.91;2050965;70;20235;-80
2022/09/14 05:08:54;;;;;;;5.35;1.55;;;;;;;19.10;54.27;92111.63;2051113;70;20218;-80
2022/09/14 05:11:23;;;;;;;5.10;1.40;;;;;;;19.13;52.81;92105.28;2050545;70;20662;-81
2022/09/14 05:13:50;;;;;;;4.60;1.52;;;;;;;19.16;54.71;92111.78;2050620;70;20201;-81
2022/09/14 05:16:18;;;;;;;8.45;1.88;;;;;;;18.96;55.59;92107.09;2050939;70;20204;-81
2022/09/14 05:18:44;;;;;;;5.80;1.75;;;;;;;19.08;55.95;92103.78;2051030;70;20161;-81
2022/09/14 05:21:13;;;;;;;7.53;2.10;;;;;;;19.10;56.39;92100.22;2051100;70;20146;-79
2022/09/14 05:23:39;;;;;;;5.72;1.50;;;;;;;19.01;57.29;92100.09;2054606;70;20586;-77
2022/09/14 05:26:05;;;;;;;3.30;1.50;;;;;;;19.09;55.96;92102.34;2052161;70;20148;-80
2022/09/14 05:28:32;;;;;;;3.72;1.70;;;;;;;19.16;56.44;92114.63;2051107;70;20298;-81
2022/09/14 05:30:58;;;;;;;7.93;1.95;;;;;;;19.12;56.68;92120.25;2050863;70;20503;-78
2022/09/14 05:33:24;;;;;;;7.45;1.90;;;;;;;19.13;56.65;92138.81;2050956;70;20486;-79
2022/09/14 05:35:50;;;;;;;5.18;1.88;;;;;;;19.03;58.82;92139.31;2050885;70;20147;-79
2022/09/14 05:38:16;;;;;;;7.53;2.15;;;;;;;18.68;59.42;92134.97;2050796;70;20229;-79
2022/09/14 05:40:41;;;;;;;7.40;2.08;;;;;;;18.94;59.16;92129.88;2047052;70;20205;-80
2022/09/14 05:43:07;;;;;;;8.93;2.10;;;;;;;19.04;59.23;92135.78;2050561;70;20534;-80
2022/09/14 05:45:34;;;;;;;4.47;1.63;;;;;;;19.03;59.68;92133.63;2050644;70;20158;-79
2022/09/14 05:48:03;;;;;;;3.38;1.40;;;;;;;19.05;56.95;92142.22;2050722;70;20150;-80
2022/09/14 05:50:30;;;;;;;5.50;1.83;;;;;;;18.74;60.05;92158.69;2050902;70;20257;-78
2022/09/14 05:52:56;;;;;;;8.25;1.85;;;;;;;18.84;59.27;92160.31;2052611;70;20190;-81
2022/09/14 05:55:22;;;;;;;6.47;1.95;;;;;;;18.91;60.25;92165.44;2051564;70;20162;-80
2022/09/14 05:57:49;;;;;;;8.20;2.10;;;;;;;19.07;57.03;92164.38;2050708;70;20590;-80
2022/09/14 06:00:15;;;;;;;7.65;2.28;;;;;;;19.03;57.38;92174.28;2050658;70;20146;-79
2022/09/14 06:02:48;;;;;;;6.00;1.90;;;;;;;19.02;58.88;92169.97;2050697;70;20164;-78
2022/09/14 06:05:15;;;;;;;4.50;1.75;;;;;;;19.05;57.99;92153.63;2050587;70;20162;-76
2022/09/14 06:07:41;;;;;;;5.57;1.88;;;;;;;19.03;57.28;92151.47;2050400;70;20185;-79
2022/09/14 06:10:07;;;;;;;5.13;1.80;;;;;;;19.04;58.46;92150.03;2047032;70;20607;-79
2022/09/14 06:12:32;;;;;;;5.05;1.45;;;;;;;19.12;58.18;92134.53;2050601;70;20146;-80
2022/09/14 06:14:58;;;;;;;2.97;1.75;;;;;;;19.16;56.28;92140.31;2050557;70;20268;-80
2022/09/14 06:17:24;;;;;;;6.38;2.10;;;;;;;19.09;56.97;92150.84;2050420;70;20237;-79
2022/09/14 06:19:49;;;;;;;5.32;1.90;;;;;;;18.85;57.94;92159.63;2050494;70;20180;-78
2022/09/14 06:22:15;;;;;;;2.60;1.60;;;;;;;19.04;56.19;92155.75;2050501;70;20518;-80
2022/09/14 06:24:41;;;;;;;5.60;1.70;;;;;;;19.09;56.59;92165.13;2050586;70;20142;-79
2022/09/14 06:27:09;;;;;;;3.90;1.63;;;;;;;19.22;55.80;92163.97;2047573;70;20146;-79
2022/09/14 06:29:35;;;;;;;7.55;1.90;;;;;;;19.26;55.73;92155.50;2050996;70;20250;-79
2022/09/14 06:32:01;;;;;;;6.28;1.77;;;;;;;19.12;58.72;92140.94;2051126;70;20135;-77
2022/09/14 06:34:26;;;;;;;4.03;1.75;;;;;;;19.37;55.97;92141.41;2051086;70;20142;-78
2022/09/14 06:36:52;;;;;;;4.40;1.70;;;;;;;19.33;57.00;92150.63;2051053;70;20181;-80
2022/09/14 06:39:18;;;;;;;5.72;1.90;;;;;;;19.38;57.46;92148.56;2051091;70;20233;-78
2022/09/14 06:41:43;;;;;;;8.05;2.00;;;;;;;19.40;55.94;92157.19;2051030;70;20146;-77
2022/09/14 06:44:17;;;;;;;5.90;1.95;;;;;;;19.65;56.58;92147.69;2045143;70;20503;-79
2022/09/14 06:46:44;;;;;;;5.07;2.03;;;;;;;19.72;55.22;92146.41;2050836;70;20141;-75
2022/09/14 06:49:12;;;;;;;8.82;1.73;;;;;;;19.68;53.78;92131.31;2047675;70;20614;-77
2022/09/14 06:51:41;;;;;;;6.28;1.85;;;;;;;19.74;53.06;92122.84;2051246;70;20142;-76
2022/09/14 06:54:10;;;;;;;4.25;2.15;;;;;;;19.99;53.49;92126.88;2051020;70;20598;-77
2022/09/14 06:56:38;;;;;;;5.80;1.83;;;;;;;20.03;53.83;92127.66;2050981;70;20563;-76
2022/09/14 06:59:07;;;;;;;6.55;2.10;;;;;;;20.10;54.71;92128.47;2050821;70;20182;-78
2022/09/14 07:01:36;;;;;;;6.60;1.98;;;;;;;19.99;53.95;92129.72;2047580;70;20487;-78
2022/09/14 07:04:05;;;;;;;6.88;1.70;;;;;;;20.10;54.73;92119.91;2050849;70;20142;-77
2022/09/14 07:06:37;;;;;;;6.75;2.10;;;;;;;20.18;53.40;92122.91;2050892;70;20134;-77
2022/09/14 07:09:03;;;;;;;7.18;1.90;;;;;;;20.29;53.09;92135.91;2051035;70;20143;-77
2022/09/14 07:11:29;;;;;;;4.18;2.05;;;;;;;20.23;54.12;92143.69;2051067;70;20162;-77
2022/09/14 07:13:58;;;;;;;7.03;2.10;;;;;;;20.41;54.26;92146.84;2050873;70;20143;-78
2022/09/14 07:16:29;;;;;;;5.53;1.90;;;;;;;20.67;53.09;92152.25;2050834;70;20143;-77
2022/09/14 07:19:00;;;;;;;6.68;2.00;;;;;;;20.84;55.10;92164.63;2051383;70;20138;-77
2022/09/14 07:21:27;;;;;;;6.15;2.08;;;;;;;20.83;55.10;92160.34;2050947;70;20224;-77
2022/09/14 07:23:54;;;;;;;5.32;2.22;;;;;;;20.93;54.19;92160.47;2050884;70;20198;-78
2022/09/14 07:26:28;;;;;;;2.60;1.65;;;;;;;21.10;53.86;92157.84;2050684;70;20165;-77
2022/09/14 07:28:57;;;;;;;5.30;1.92;;;;;;;21.12;56.81;92158.59;2050772;70;20147;-78
2022/09/14 07:31:31;;;;;;;3.85;1.80;;;;;;;21.18;57.31;92157.97;2050904;70;20519;-78
2022/09/14 07:34:00;;;;;;;4.55;1.73;;;;;;;21.23;54.26;92162.31;2050942;70;20138;-78
2022/09/14 07:36:26;;;;;;;7.75;2.72;;;;;;;21.20;54.62;92155.81;2050791;70;20146;-78
2022/09/14 07:38:53;;;;;;;8.73;2.38;;;;;;;21.29;55.00;92165.97;2050795;70;20169;-77
2022/09/14 07:41:26;;;;;;;10.35;2.55;;;;;;;21.29;56.85;92162.38;2050842;70;20210;-76
2022/09/14 07:43:54;;;;;;;25.75;12.98;;;;;;;21.17;56.98;92171.56;2050851;70;20154;-77
2022/09/14 07:46:20;;;;;;;19.13;10.90;;;;;;;21.43;56.42;92170.44;2050888;70;20166;-76
2022/09/14 07:48:47;;;;;;;16.90;7.82;;;;;;;21.57;55.32;92168.47;2050810;70;20587;-77
2022/09/14 07:51:13;;;;;;;10.80;3.90;;;;;;;21.75;55.08;92167.22;2054548;70;20154;-77
2022/09/14 07:53:41;;;;;;;7.07;3.00;;;;;;;21.93;56.10;92166.72;2054719;70;20660;-78
2022/09/14 07:56:08;;;;;;;7.75;2.97;;;;;;;21.99;56.33;92155.28;2054293;69;20152;-77
2022/09/14 07:58:35;;;;;;;14.15;3.63;;;;;;;22.06;55.68;92148.22;2051266;70;20585;-77
2022/09/14 08:01:04;;;;;;;11.30;4.20;;;;;;;21.94;56.19;92145.22;2054514;69;20134;-77
2022/09/14 08:03:30;;;;;;;6.47;4.10;;;;;;;22.13;54.61;92141.16;2054468;70;20707;-77
2022/09/14 08:06:01;;;;;;;9.45;4.05;;;;;;;22.25;55.00;92141.25;2054432;69;20176;-77
2022/09/14 08:08:38;;;;;;;8.85;3.30;;;;;;;22.29;53.37;92144.16;2054397;70;20240;-76
2022/09/14 08:11:18;;;;;;;6.47;2.75;;;;;;;22.41;53.93;92160.03;2054513;70;20285;-77
2022/09/14 08:13:49;;;;;;;7.90;2.95;;;;;;;22.47;56.36;92163.66;2054510;69;20158;-78
2022/09/14 08:16:16;;;;;;;8.48;3.60;;;;;;;22.60;55.76;92189.56;2054498;70;20195;-79
2022/09/14 08:18:42;;;;;;;7.35;2.90;;;;;;;22.72;54.27;92189.66;2054496;70;20490;-76
2022/09/14 08:21:10;;;;;;;6.05;3.00;;;;;;;22.87;53.95;92187.63;2054374;70;20585;-77
2022/09/14 08:23:37;;;;;;;12.57;2.88;;;;;;;22.96;53.90;92189.88;2054467;70;20221;-77
2022/09/14 08:26:06;;;;;;;5.30;2.40;;;;;;;23.02;51.84;92184.16;2054390;70;20170;-78
2022/09/14 08:28:32;;;;;;;7.85;2.70;;;;;;;22.96;53.05;92187.00;2054445;70;20161;-80
2022/09/14 08:31:07;;;;;;;3.25;2.28;;;;;;;23.03;51.10;92197.06;2054555;69;20148;-79
2022/09/14 08:33:34;;;;;;;7.05;2.85;;;;;;;23.03;52.15;92204.97;2054563;70;20241;-79
2022/09/14 08:35:59;;;;;;;7.45;3.60;;;;;;;22.71;53.96;92211.16;2054734;70;20184;-79
2022/09/14 08:38:26;;;;;;;8.82;3.35;;;;;;;22.92;51.83;92217.81;2054528;69;20146;-78
2022/09/14 08:40:52;;;;;;;6.18;2.50;;;;;;;22.91;51.85;92216.34;2054294;69;20149;-79
2022/09/14 08:43:20;;;;;;;6.28;2.88;;;;;;;22.99;52.25;92204.94;2054357;69;20161;-78
2022/09/14 08:45:47;;;;;;;6.68;2.33;;;;;;;23.13;52.28;92195.69;2052276;69;20236;-79
2022/09/14 08:48:35;;;;;;;6.03;2.63;;;;;;;23.31;51.92;92190.06;2050731;70;20237;-79
2022/09/14 08:51:04;;;;;;;9.15;2.20;;;;;;;23.36;51.18;92200.13;2050840;70;20161;-79
2022/09/14 08:53:34;;;;;;;8.18;3.53;;;;;;;23.21;50.55;92198.63;2051166;70;20161;-80
2022/09/14 08:56:08;;;;;;;6.10;3.05;;;;;;;23.30;53.03;92192.22;2054254;69;20206;-79
2022/09/14 08:58:49;;;;;;;5.15;2.70;;;;;;;23.38;52.67;92197.28;2054355;69;20174;-79
2022/09/14 09:01:47;;;;;;;5.50;2.63;;;;;;;23.38;51.28;92190.81;2054380;70;20647;-78
2022/09/14 09:04:25;;;;;;;6.65;2.65;;;;;;;23.53;50.44;92189.44;2051089;70;20154;-80
2022/09/14 09:07:13;;;;;;;7.03;2.53;;;;;;;23.57;53.12;92177.97;2054438;69;20257;-79
2022/09/14 09:09:43;;;;;;;4.57;2.60;;;;;;;23.69;55.26;92174.47;2054534;69;20192;-76
2022/09/14 09:12:22;;;;;;;6.82;2.70;;;;;;;23.16;52.43;92174.19;2054192;69;20206;-78
2022/09/14 09:15:00;;;;;;;7.80;2.60;;;;;;;23.18;52.43;92174.91;2054313;70;20153;-77
2022/09/14 09:17:28;;;;;;;8.43;2.90;;;;;;;23.67;50.49;92165.84;2054519;70;20154;-78
2022/09/14 09:20:19;;;;;;;7.15;2.65;;;;;;;24.06;49.43;92176.00;2054353;69;20194;-77
2022/09/14 09:22:52;;;;;;;8.90;2.50;;;;;;;23.69;49.57;92157.25;2050979;70;20177;-75
2022/09/14 09:25:30;;;;;;;9.13;2.53;;;;;;;23.26;50.44;92154.13;2054220;69;20158;-76
2022/09/14 09:28:08;;;;;;;5.60;2.30;;;;;;;23.46;50.83;92151.38;2051118;70;20150;-76
2022/09/14 09:30:34;;;;;;;7.90;2.78;;;;;;;24.14;49.80;92149.41;2054451;69;20241;-76
2022/09/14 09:33:00;;;;;;;4.15;2.45;;;;;;;24.43;48.35;92141.59;2051014;70;20168;-76
2022/09/14 09:35:44;;;;;;;10.43;2.25;;;;;;;24.28;50.09;92140.84;2051077;70;20566;-77
2022/09/14 09:38:20;;;;;;;9.48;2.70;;;;;;;24.25;49.06;92130.03;2050981;70;20157;-76
2022/09/14 09:41:21;;;;;;;5.90;3.17;;;;;;;24.47;48.14;92121.44;2054251;70;20146;-76
2022/09/14 09:44:09;;;;;;;5.47;2.22;;;;;;;24.66;47.40;92122.16;2052579;70;20170;-76
2022/09/14 09:46:47;;;;;;;6.45;2.40;;;;;;;25.15;46.33;92122.06;2050755;70;20472;-78
2022/09/14 09:49:22;;;;;;;8.55;2.30;;;;;;;25.35;46.02;92121.31;2050480;70;20143;-76
2022/09/14 09:51:49;;;;;;;4.78;2.50;;;;;;;25.34;45.15;92109.06;2050510;70;20579;-77
2022/09/14 09:54:15;;;;;;;4.35;2.15;;;;;;;25.58;44.13;92096.72;2050486;70;20135;-76
2022/09/14 09:56:51;;;;;;;8.75;2.17;;;;;;;25.84;43.51;92090.13;2048277;70;20206;-75
2022/09/14 09:59:39;;;;;;;4.78;2.28;;;;;;;25.99;43.83;92084.28;2043787;70;20147;-75
2022/09/14 10:02:31;;;;;;;8.77;2.38;;;;;;;26.33;42.04;92080.44;2046103;70;20150;-76
2022/09/14 10:05:07;;;;;;;6.22;2.40;;;;;;;26.71;42.31;92079.41;2047239;70;20165;-77
2022/09/14 10:07:38;;;;;;;3.97;2.10;;;;;;;26.26;42.35;92071.09;2047197;70;20559;-77
2022/09/14 10:10:10;;;;;;;5.80;2.25;;;;;;;26.78;43.06;92083.66;2047081;70;20147;-77
2022/09/14 10:12:39;;;;;;;6.38;2.00;;;;;;;26.57;43.37;92077.38;2047402;70;20230;-77
2022/09/14 10:15:29;;;;;;;4.10;2.08;;;;;;;27.39;43.58;92061.38;2047166;70;20156;-77
2022/09/14 10:18:10;;;;;;;5.47;2.47;;;;;;;27.69;42.34;92052.34;2047285;70;20139;-78
2022/09/14 10:20:39;;;;;;;7.40;2.42;;;;;;;27.41;41.89;92049.81;2047463;70;20139;-77
2022/09/14 10:23:20;;;;;;;6.38;2.40;;;;;;;27.21;40.61;92044.97;2047176;70;20146;-78
2022/09/14 10:26:12;;;;;;;5.90;2.13;;;;;;;27.66;39.96;92039.34;2047093;70;20143;-78
2022/09/14 10:28:42;;;;;;;4.47;2.53;;;;;;;27.90;39.26;92037.59;2047075;70;20157;-78
2022/09/14 10:31:11;;;;;;;4.78;2.20;;;;;;;27.43;40.25;92038.94;2047108;70;20275;-78
2022/09/14 10:33:36;;;;;;;4.07;2.10;;;;;;;27.80;39.90;92039.19;2047322;70;20233;-80
2022/09/14 10:36:41;;;;;;;5.82;2.60;;;;;;;27.89;39.32;92036.88;2047040;70;20518;-78
2022/09/14 10:39:53;;;;;;;6.78;2.50;;;;;;;27.73;40.24;92034.97;2036620;70;20247;-79
2022/09/14 10:42:28;;;;;;;6.32;2.30;;;;;;;27.95;39.33;92028.16;2033740;70;20163;-79
2022/09/14 10:45:26;;;;;;;8.35;2.33;;;;;;;26.79;38.94;92024.47;2037134;70;20230;-80
2022/09/14 10:48:05;;;;;;;8.98;2.22;;;;;;;27.23;39.59;92011.00;2039539;70;20164;-80
2022/09/14 10:50:42;;;;;;;6.07;2.55;;;;;;;27.40;39.43;92014.41;2039542;70;20147;-78
2022/09/14 10:53:30;;;;;;;6.10;2.63;;;;;;;26.55;41.95;92008.13;2039597;70;20218;-79
2022/09/14 10:56:18;;;;;;;4.32;2.70;;;;;;;27.70;40.92;92001.72;2039455;70;20143;-80
2022/09/14 10:59:25;;;;;;;4.72;2.47;;;;;;;27.61;40.92;92001.13;2035899;70;20182;-77
2022/09/14 11:02:12;;;;;;;5.88;2.60;;;;;;;30.15;37.47;91997.25;2039070;70;20676;-77
2022/09/14 11:05:11;;;;;;;6.20;2.75;;;;;;;30.25;35.57;91991.19;2039226;70;20146;-78
2022/09/14 11:07:56;;;;;;;4.18;2.65;;;;;;;30.08;36.12;91987.22;2039260;70;20242;-78
2022/09/14 11:10:31;;;;;;;5.13;2.30;;;;;;;32.21;32.00;91991.63;2039135;70;20167;-79
2022/09/14 11:13:31;;;;;;;8.38;2.42;;;;;;;33.91;31.58;91983.59;2044404;70;20241;-78
2022/09/14 11:16:15;;;;;;;5.65;2.33;;;;;;;33.30;31.68;91982.91;2050787;70;20220;-78
2022/09/14 11:18:56;;;;;;;4.40;2.30;;;;;;;33.20;32.66;91978.13;2050786;70;20248;-78
2022/09/14 11:21:25;;;;;;;5.32;2.20;;;;;;;33.61;31.45;91970.84;2050718;70;20627;-78
2022/09/14 11:23:59;;;;;;;7.75;2.15;;;;;;;32.56;31.36;91956.28;2050763;70;20158;-79
2022/09/14 11:26:30;;;;;;;6.80;2.67;;;;;;;32.32;32.20;91949.03;2050765;70;20658;-77
2022/09/14 11:29:30;;;;;;;7.00;2.33;;;;;;;32.21;32.50;91939.22;2050800;70;20206;-79
2022/09/14 11:32:11;;;;;;;5.55;2.25;;;;;;;32.93;32.12;91931.72;2047497;70;20141;-78
2022/09/14 11:34:59;;;;;;;5.53;2.10;;;;;;;35.01;29.51;91949.25;2050970;70;20146;-80
2022/09/14 11:37:36;;;;;;;7.75;2.33;;;;;;;32.56;32.84;91932.25;2050867;70;20621;-80
2022/09/14 11:40:08;;;;;;;4.38;2.08;;;;;;;31.44;33.48;91921.94;2051102;70;20583;-81
2022/09/14 11:43:00;;;;;;;6.13;2.20;;;;;;;30.86;32.98;91922.13;2050745;70;20178;-81
2022/09/14 11:45:49;;;;;;;4.03;2.43;;;;;;;30.83;34.01;91917.84;2051691;70;20165;-80
2022/09/14 11:48:18;;;;;;;4.22;2.35;;;;;;;31.28;33.21;91916.59;2050992;70;20537;-80
2022/09/14 11:50:45;;;;;;;6.13;2.50;;;;;;;31.84;33.12;91922.19;2051617;70;20513;-81
2022/09/14 11:53:15;;;;;;;8.20;2.88;;;;;;;31.56;34.09;91917.94;2047775;70;20134;-80
2022/09/14 11:55:49;;;;;;;6.22;2.45;;;;;;;31.46;33.55;91913.16;2050768;70;20186;-81
2022/09/14 11:58:21;;;;;;;6.65;3.00;;;;;;;31.29;34.14;91912.91;2050846;70;20173;-80